createdAt,value
2017-05-08T00:00:11.417Z,0
2017-05-08T00:10:11.324Z,0
2017-05-08T00:20:11.394Z,0
2017-05-08T00:30:11.357Z,0
2017-05-08T00:40:11.417Z,0
2017-05-08T00:50:11.420Z,0
2017-05-08T01:00:11.364Z,0
2017-05-08T01:10:11.549Z,0
2017-05-08T01:20:11.495Z,0
2017-05-08T01:30:11.542Z,0
2017-05-08T01:40:11.396Z,0
2017-05-08T01:50:11.405Z,0
2017-05-08T02:00:11.424Z,0
2017-05-08T02:10:11.460Z,0
2017-05-08T02:20:11.442Z,0
2017-05-08T02:30:11.434Z,0
2017-05-08T02:40:11.428Z,0
2017-05-08T02:50:11.526Z,0
2017-05-08T03:00:11.481Z,0
2017-05-08T03:10:11.546Z,0
2017-05-08T03:20:11.469Z,0
2017-05-08T03:30:11.550Z,0
2017-05-08T03:40:11.501Z,0
2017-05-08T03:50:11.508Z,0
2017-05-08T04:00:11.540Z,0
2017-05-08T04:10:11.533Z,5
2017-05-08T04:20:11.553Z,5
2017-05-08T04:30:11.526Z,10
2017-05-08T04:40:11.521Z,5
2017-05-08T04:50:11.677Z,15
2017-05-08T05:00:11.557Z,20
2017-05-08T05:10:11.564Z,40
2017-05-08T05:20:11.631Z,40
2017-05-08T05:30:11.581Z,20
2017-05-08T05:40:11.676Z,45
2017-05-08T05:50:11.587Z,50
2017-05-08T06:00:11.611Z,55
2017-05-08T06:10:11.620Z,70
2017-05-08T06:20:11.625Z,80
2017-05-08T06:30:11.635Z,85
2017-05-08T06:40:11.752Z,90
2017-05-08T06:50:11.661Z,80
2017-05-08T07:00:11.733Z,95
2017-05-08T07:10:11.679Z,105
2017-05-08T07:20:11.691Z,125
2017-05-08T07:30:11.871Z,140
2017-05-08T07:40:11.713Z,145
2017-05-08T07:50:11.915Z,160
2017-05-08T08:00:11.890Z,170
2017-05-08T08:10:11.724Z,185
2017-05-08T08:20:11.754Z,225
2017-05-08T08:30:11.807Z,145
2017-05-08T08:40:11.730Z,200
2017-05-08T08:50:11.940Z,200
2017-05-08T09:00:11.748Z,205
2017-05-08T09:10:11.890Z,200
2017-05-08T09:20:11.865Z,200
2017-05-08T09:30:11.890Z,220
2017-05-08T09:40:28.877Z,265
2017-05-08T09:50:22.202Z,220
2017-05-08T10:00:11.918Z,200
2017-05-08T10:10:11.946Z,200
2017-05-08T10:20:12.170Z,340
2017-05-08T10:30:11.884Z,280
2017-05-08T10:40:11.906Z,540
2017-05-08T10:50:11.851Z,455
2017-05-08T11:00:12.056Z,270
2017-05-08T11:10:11.948Z,175
2017-05-08T11:20:11.922Z,175
2017-05-08T11:30:12.972Z,145
2017-05-08T11:40:11.934Z,180
2017-05-08T11:50:13.139Z,175
2017-05-08T12:00:11.995Z,180
2017-05-08T12:10:11.960Z,160
2017-05-08T12:20:12.079Z,200
2017-05-08T12:30:12.013Z,185
2017-05-08T12:40:11.965Z,125
2017-05-08T12:50:11.986Z,125
2017-05-08T13:00:13.057Z,165
2017-05-08T13:10:12.083Z,155
2017-05-08T13:20:12.906Z,130
2017-05-08T13:30:12.045Z,250
2017-05-08T13:40:12.197Z,190
2017-05-08T13:50:12.971Z,170
2017-05-08T14:00:12.293Z,185
2017-05-08T14:10:12.216Z,210
2017-05-08T14:20:12.113Z,280
2017-05-08T14:30:12.286Z,220
2017-05-08T14:40:12.275Z,365
2017-05-08T14:50:12.145Z,120
2017-05-08T15:00:12.117Z,165
2017-05-08T15:10:12.145Z,120
2017-05-08T15:20:12.200Z,120
2017-05-08T15:30:12.171Z,120
2017-05-08T15:40:12.194Z,205
2017-05-08T15:50:12.219Z,115
2017-05-08T16:00:12.244Z,200
2017-05-08T16:10:12.335Z,150
2017-05-08T16:20:12.279Z,120
2017-05-08T16:30:12.320Z,160
2017-05-08T16:40:12.281Z,145
2017-05-08T16:50:12.437Z,135
2017-05-08T17:00:12.254Z,130
2017-05-08T17:10:12.268Z,70
2017-05-08T17:20:12.277Z,95
2017-05-08T17:30:12.285Z,75
2017-05-08T17:40:12.545Z,80
2017-05-08T17:50:12.304Z,90
2017-05-08T18:00:12.313Z,70
2017-05-08T18:10:12.351Z,60
2017-05-08T18:20:12.524Z,45
2017-05-08T18:30:12.344Z,35
2017-05-08T18:40:12.425Z,30
2017-05-08T18:50:12.395Z,15
2017-05-08T19:00:12.428Z,10
2017-05-08T19:10:12.385Z,5
2017-05-08T19:20:12.405Z,0
2017-05-08T19:30:12.411Z,0
2017-05-08T19:40:12.498Z,0
2017-05-08T19:50:12.417Z,0
2017-05-08T20:00:12.419Z,0
2017-05-08T20:10:12.482Z,0
2017-05-08T20:20:12.499Z,0
2017-05-08T20:30:12.626Z,0
2017-05-08T20:40:12.624Z,0
2017-05-08T20:50:12.638Z,0
2017-05-08T21:00:12.942Z,0
2017-05-08T21:10:13.118Z,0
2017-05-08T21:20:13.109Z,0
2017-05-08T21:30:12.734Z,0
2017-05-08T21:40:12.598Z,0
2017-05-08T21:50:12.856Z,0
2017-05-08T22:00:12.557Z,0
2017-05-08T22:10:12.599Z,0
2017-05-08T22:20:12.530Z,0
2017-05-08T22:30:12.585Z,0
2017-05-08T22:40:12.588Z,0
2017-05-08T22:50:12.694Z,0
2017-05-08T23:00:12.605Z,0
2017-05-08T23:10:12.571Z,0
2017-05-08T23:20:12.541Z,0
2017-05-08T23:30:12.598Z,0
2017-05-08T23:40:12.571Z,0
2017-05-08T23:50:12.689Z,0
